createdAt,value
2017-09-13T00:01:25.810Z,57.70
2017-09-13T00:03:54.078Z,58.00
2017-09-13T00:06:21.603Z,57.90
2017-09-13T00:08:49.107Z,58.10
2017-09-13T00:11:17.407Z,58.00
2017-09-13T00:13:44.901Z,57.90
2017-09-13T00:16:12.462Z,58.00
2017-09-13T00:18:39.967Z,58.00
2017-09-13T00:21:08.259Z,58.10
2017-09-13T00:23:35.766Z,58.10
2017-09-13T00:26:03.291Z,57.90
2017-09-13T00:28:30.819Z,57.80
2017-09-13T00:30:59.095Z,57.80
2017-09-13T00:33:27.402Z,57.90
2017-09-13T00:35:54.906Z,57.90
2017-09-13T00:38:22.445Z,58.00
2017-09-13T00:40:49.946Z,58.10
2017-09-13T00:43:18.231Z,58.20
2017-09-13T00:45:46.503Z,58.20
2017-09-13T00:48:14.779Z,58.40
2017-09-13T00:50:43.054Z,58.30
2017-09-13T00:53:11.336Z,58.40
2017-09-13T00:55:39.611Z,58.40
2017-09-13T00:58:07.888Z,58.40
2017-09-13T01:00:36.158Z,58.30
2017-09-13T01:03:04.451Z,58.40
2017-09-13T01:05:31.967Z,58.30
2017-09-13T01:07:59.482Z,58.30
2017-09-13T01:10:26.973Z,58.30
2017-09-13T01:12:54.502Z,58.30
2017-09-13T01:15:22.007Z,58.40
2017-09-13T01:17:49.518Z,58.40
2017-09-13T01:20:17.029Z,58.40
2017-09-13T01:22:44.558Z,58.40
2017-09-13T01:25:12.066Z,58.40
2017-09-13T01:27:40.346Z,58.30
2017-09-13T01:30:08.627Z,58.30
2017-09-13T01:32:36.898Z,58.20
2017-09-13T01:35:05.179Z,58.30
2017-09-13T01:37:33.450Z,58.30
2017-09-13T01:40:01.731Z,58.10
2017-09-13T01:42:30.006Z,58.20
2017-09-13T01:44:58.307Z,58.10
2017-09-13T01:47:25.813Z,58.10
2017-09-13T01:49:53.326Z,58.10
2017-09-13T01:52:20.827Z,58.20
2017-09-13T01:54:48.346Z,58.20
2017-09-13T01:57:15.842Z,58.20
2017-09-13T01:59:43.368Z,58.10
2017-09-13T02:02:10.874Z,58.20
2017-09-13T02:04:38.398Z,58.10
2017-09-13T02:07:05.898Z,58.20
2017-09-13T02:09:33.424Z,58.10
2017-09-13T02:12:00.935Z,58.00
2017-09-13T02:14:29.230Z,58.10
2017-09-13T02:16:56.738Z,58.00
2017-09-13T02:19:24.279Z,57.90
2017-09-13T02:21:51.778Z,58.00
2017-09-13T02:24:20.120Z,57.80
2017-09-13T02:26:47.647Z,57.80
2017-09-13T02:29:15.159Z,57.70
2017-09-13T02:31:42.711Z,57.80
2017-09-13T02:34:10.225Z,57.90
2017-09-13T02:36:37.759Z,57.90
2017-09-13T02:39:06.035Z,57.80
2017-09-13T02:41:34.315Z,57.80
2017-09-13T02:44:02.582Z,57.90
2017-09-13T02:46:30.872Z,57.90
2017-09-13T02:48:59.151Z,57.90
2017-09-13T02:51:27.442Z,57.70
2017-09-13T02:53:54.953Z,57.70
2017-09-13T02:56:22.482Z,57.70
2017-09-13T02:58:50.002Z,57.70
2017-09-13T03:01:18.282Z,57.80
2017-09-13T03:03:46.545Z,57.90
2017-09-13T03:06:14.835Z,57.90
2017-09-13T03:08:43.107Z,57.90
2017-09-13T03:11:11.402Z,57.90
2017-09-13T03:13:38.897Z,57.90
2017-09-13T03:16:06.423Z,57.90
2017-09-13T03:18:33.930Z,57.90
2017-09-13T03:21:01.448Z,57.90
2017-09-13T03:23:28.946Z,57.90
2017-09-13T03:25:56.461Z,57.90
2017-09-13T03:28:23.995Z,57.90
2017-09-13T03:30:51.493Z,57.80
2017-09-13T03:33:19.010Z,57.80
2017-09-13T03:35:47.287Z,57.90
2017-09-13T03:38:15.568Z,57.90
2017-09-13T03:40:43.838Z,57.80
2017-09-13T03:43:12.118Z,57.80
2017-09-13T03:45:40.394Z,57.80
2017-09-13T03:48:08.695Z,57.80
2017-09-13T03:50:36.198Z,57.70
2017-09-13T03:53:03.715Z,57.70
2017-09-13T03:55:31.214Z,57.80
2017-09-13T03:57:58.741Z,57.80
2017-09-13T04:00:26.246Z,57.80
2017-09-13T04:02:53.769Z,57.80
2017-09-13T04:05:21.284Z,57.90
2017-09-13T04:07:49.562Z,57.90
2017-09-13T04:10:17.838Z,58.50
2017-09-13T04:12:46.119Z,57.90
2017-09-13T04:15:14.390Z,58.40
2017-09-13T04:17:42.670Z,57.90
2017-09-13T04:20:10.942Z,57.90
2017-09-13T04:22:39.248Z,57.90
2017-09-13T04:25:06.767Z,57.70
2017-09-13T04:27:34.266Z,57.80
2017-09-13T04:30:01.794Z,57.90
2017-09-13T04:32:30.063Z,58.50
2017-09-13T04:34:57.587Z,57.80
2017-09-13T04:37:25.083Z,57.90
2017-09-13T04:39:52.612Z,57.90
2017-09-13T04:42:20.112Z,57.90
2017-09-13T04:44:47.668Z,58.00
2017-09-13T04:47:15.948Z,57.90
2017-09-13T04:49:44.332Z,57.80
2017-09-13T04:52:12.607Z,57.80
2017-09-13T04:54:40.887Z,57.90
2017-09-13T04:57:09.145Z,57.80
2017-09-13T04:59:36.720Z,57.70
2017-09-13T05:02:04.992Z,57.80
2017-09-13T05:04:33.271Z,57.80
2017-09-13T05:07:00.782Z,57.70
2017-09-13T05:09:28.330Z,57.70
2017-09-13T05:11:55.834Z,57.60
2017-09-13T05:14:23.346Z,57.60
2017-09-13T05:16:50.888Z,57.40
2017-09-13T05:19:18.427Z,57.50
2017-09-13T05:21:46.803Z,57.40
2017-09-13T05:24:15.102Z,57.40
2017-09-13T05:26:42.614Z,57.30
2017-09-13T05:29:10.127Z,57.30
2017-09-13T05:31:37.713Z,57.40
2017-09-13T05:34:05.218Z,57.40
2017-09-13T05:36:33.523Z,57.30
2017-09-13T05:39:01.033Z,57.80
2017-09-13T05:41:28.567Z,57.30
2017-09-13T05:43:56.096Z,57.40
2017-09-13T05:46:23.624Z,57.50
2017-09-13T05:48:51.130Z,57.60
2017-09-13T05:51:18.655Z,57.70
2017-09-13T05:53:46.930Z,58.20
2017-09-13T05:56:15.226Z,58.50
2017-09-13T05:58:42.731Z,58.50
2017-09-13T06:01:10.251Z,58.50
2017-09-13T06:03:37.749Z,58.50
2017-09-13T06:06:05.300Z,58.70
2017-09-13T06:08:32.827Z,58.50
2017-09-13T06:11:00.362Z,58.40
2017-09-13T06:13:28.638Z,58.70
2017-09-13T06:17:20.922Z,58.80
2017-09-13T06:19:48.438Z,58.80
2017-09-13T06:22:16.719Z,58.90
2017-09-13T06:24:44.998Z,59.00
2017-09-13T06:27:13.299Z,59.10
2017-09-13T06:29:40.815Z,59.10
2017-09-13T06:32:08.494Z,59.00
2017-09-13T06:34:36.759Z,59.30
2017-09-13T06:37:04.286Z,59.30
2017-09-13T06:39:31.794Z,59.30
2017-09-13T06:42:00.086Z,59.40
2017-09-13T06:44:27.590Z,59.30
2017-09-13T06:46:55.113Z,59.30
2017-09-13T06:49:22.619Z,59.30
2017-09-13T06:51:50.137Z,59.10
2017-09-13T06:54:17.638Z,58.90
2017-09-13T06:56:45.175Z,58.90
2017-09-13T06:59:12.678Z,58.70
2017-09-13T07:01:40.954Z,58.30
2017-09-13T07:04:09.234Z,58.20
2017-09-13T07:06:37.507Z,58.20
2017-09-13T07:09:05.811Z,58.20
2017-09-13T07:11:33.329Z,58.20
2017-09-13T07:14:00.855Z,57.90
2017-09-13T07:16:28.363Z,57.80
2017-09-13T07:18:56.646Z,57.80
2017-09-13T07:21:24.913Z,57.40
2017-09-13T07:23:52.443Z,57.40
2017-09-13T07:26:19.954Z,57.40
2017-09-13T07:28:47.480Z,57.40
2017-09-13T07:31:14.982Z,57.30
2017-09-13T07:33:42.523Z,57.20
2017-09-13T07:36:10.038Z,57.20
2017-09-13T07:38:37.563Z,56.90
2017-09-13T07:41:05.075Z,56.90
2017-09-13T07:43:32.599Z,57.00
2017-09-13T07:46:00.097Z,56.80
2017-09-13T07:48:27.621Z,56.50
2017-09-13T07:50:55.145Z,56.10
2017-09-13T07:53:22.670Z,55.70
2017-09-13T07:55:50.175Z,55.60
2017-09-13T07:58:17.699Z,55.00
2017-09-13T08:00:45.962Z,53.90
2017-09-13T08:03:13.466Z,53.80
2017-09-13T08:05:40.999Z,54.10
2017-09-13T08:08:09.275Z,53.00
2017-09-13T08:10:37.571Z,53.20
2017-09-13T08:13:05.075Z,53.20
2017-09-13T08:15:32.594Z,53.50
2017-09-13T08:18:00.111Z,53.60
2017-09-13T08:20:27.641Z,53.70
2017-09-13T08:22:55.139Z,53.50
2017-09-13T08:25:23.427Z,53.50
2017-09-13T08:27:51.697Z,53.40
2017-09-13T08:30:19.991Z,53.20
2017-09-13T08:32:47.519Z,53.20
2017-09-13T08:35:15.035Z,53.30
2017-09-13T08:37:42.556Z,53.50
2017-09-13T08:40:10.847Z,53.50
2017-09-13T08:42:38.357Z,53.50
2017-09-13T08:45:05.879Z,53.30
2017-09-13T08:47:33.390Z,53.30
2017-09-13T08:50:00.920Z,53.40
2017-09-13T08:52:28.425Z,53.20
2017-09-13T08:54:56.705Z,53.30
2017-09-13T08:57:24.974Z,53.20
2017-09-13T08:59:53.294Z,52.90
2017-09-13T09:02:20.815Z,52.90
2017-09-13T09:04:49.114Z,52.50
2017-09-13T09:07:16.627Z,52.40
2017-09-13T09:09:44.138Z,52.40
2017-09-13T09:12:11.666Z,52.80
2017-09-13T09:14:39.220Z,52.90
2017-09-13T09:17:06.755Z,52.50
2017-09-13T09:19:34.262Z,53.10
2017-09-13T09:22:01.903Z,52.30
2017-09-13T09:24:30.182Z,52.50
2017-09-13T09:26:58.543Z,52.20
2017-09-13T09:29:26.042Z,52.10
2017-09-13T09:31:53.583Z,52.30
2017-09-13T09:34:21.107Z,52.10
2017-09-13T09:36:48.655Z,51.70
2017-09-13T09:39:16.163Z,51.50
2017-09-13T09:41:43.687Z,51.80
2017-09-13T09:44:11.199Z,52.10
2017-09-13T09:46:38.728Z,52.10
2017-09-13T09:49:06.242Z,52.00
2017-09-13T09:51:33.778Z,51.60
2017-09-13T09:54:01.278Z,51.50
2017-09-13T09:56:28.797Z,51.60
2017-09-13T09:58:56.314Z,51.40
2017-09-13T10:01:23.840Z,50.90
2017-09-13T10:03:51.347Z,51.10
2017-09-13T10:06:19.647Z,51.20
2017-09-13T10:08:47.156Z,51.10
2017-09-13T10:11:14.699Z,51.80
2017-09-13T10:13:42.198Z,51.20
2017-09-13T10:16:10.485Z,51.20
2017-09-13T10:18:38.784Z,51.40
2017-09-13T10:21:06.338Z,51.30
2017-09-13T10:23:33.863Z,52.30
2017-09-13T10:26:01.358Z,51.90
2017-09-13T10:28:28.879Z,51.70
2017-09-13T10:30:56.385Z,52.70
2017-09-13T10:33:23.907Z,53.50
2017-09-13T10:35:51.420Z,52.00
2017-09-13T10:38:18.946Z,53.40
2017-09-13T10:40:46.454Z,53.20
2017-09-13T10:43:13.975Z,53.60
2017-09-13T10:45:41.469Z,53.40
2017-09-13T10:48:09.778Z,54.00
2017-09-13T10:50:37.279Z,53.40
2017-09-13T10:53:04.856Z,53.90
2017-09-13T10:55:32.359Z,54.40
2017-09-13T10:58:00.660Z,54.50
2017-09-13T11:00:28.162Z,54.50
2017-09-13T11:02:55.688Z,54.10
2017-09-13T11:05:23.200Z,54.80
2017-09-13T11:07:50.748Z,55.00
2017-09-13T11:10:18.329Z,55.10
2017-09-13T11:12:46.626Z,54.70
2017-09-13T11:15:14.919Z,55.00
2017-09-13T11:17:42.436Z,55.10
2017-09-13T11:20:10.002Z,54.40
2017-09-13T11:22:37.508Z,54.70
2017-09-13T11:25:05.050Z,54.20
2017-09-13T11:27:32.552Z,54.20
2017-09-13T11:30:00.083Z,53.90
2017-09-13T11:32:27.611Z,54.20
2017-09-13T11:34:55.910Z,53.70
2017-09-13T11:37:23.426Z,53.70
2017-09-13T11:39:50.970Z,52.80
2017-09-13T11:42:18.483Z,53.20
2017-09-13T11:44:46.010Z,53.20
2017-09-13T11:47:13.526Z,53.30
2017-09-13T11:49:41.060Z,53.30
2017-09-13T11:52:08.562Z,52.80
2017-09-13T11:54:36.078Z,52.80
2017-09-13T11:57:03.626Z,52.40
2017-09-13T11:59:31.175Z,52.30
2017-09-13T12:01:59.446Z,52.00
2017-09-13T12:04:26.972Z,51.90
2017-09-13T12:06:54.486Z,51.50
2017-09-13T12:09:22.779Z,51.30
2017-09-13T12:11:50.269Z,51.20
2017-09-13T12:14:17.793Z,51.40
2017-09-13T12:16:45.354Z,50.40
2017-09-13T12:19:12.875Z,50.80
2017-09-13T12:21:40.395Z,50.90
2017-09-13T12:24:07.903Z,50.50
2017-09-13T12:26:36.197Z,50.40
2017-09-13T12:29:04.466Z,50.80
2017-09-13T12:31:32.752Z,50.60
2017-09-13T12:34:00.250Z,50.50
2017-09-13T12:36:27.766Z,50.80
2017-09-13T12:38:56.045Z,50.20
2017-09-13T12:41:23.646Z,50.20
2017-09-13T12:43:51.142Z,50.80
2017-09-13T12:46:18.698Z,50.60
2017-09-13T12:48:46.210Z,50.20
2017-09-13T12:51:14.503Z,50.50
2017-09-13T12:53:42.018Z,50.40
2017-09-13T12:56:09.535Z,50.60
2017-09-13T12:58:37.052Z,50.10
2017-09-13T13:01:05.349Z,50.10
2017-09-13T13:03:32.867Z,50.10
2017-09-13T13:06:00.439Z,50.60
2017-09-13T13:08:27.935Z,50.70
2017-09-13T13:10:55.457Z,50.40
2017-09-13T13:13:23.022Z,50.60
2017-09-13T13:15:50.543Z,51.40
2017-09-13T13:18:18.169Z,51.20
2017-09-13T13:20:45.691Z,51.40
2017-09-13T13:23:13.262Z,51.40
2017-09-13T13:25:41.528Z,52.60
2017-09-13T13:28:09.061Z,52.10
2017-09-13T13:30:36.582Z,52.00
2017-09-13T13:33:04.118Z,52.50
2017-09-13T13:35:31.658Z,53.40
2017-09-13T13:37:59.199Z,54.30
2017-09-13T13:40:26.742Z,54.60
2017-09-13T13:42:54.252Z,55.40
2017-09-13T13:45:22.551Z,56.00
2017-09-13T13:47:50.084Z,56.00
2017-09-13T13:50:17.605Z,55.70
2017-09-13T13:52:45.139Z,55.80
2017-09-13T13:55:12.639Z,55.90
2017-09-13T13:57:40.159Z,55.90
2017-09-13T14:00:07.708Z,56.40
2017-09-13T14:02:35.234Z,56.00
2017-09-13T14:05:02.744Z,56.10
2017-09-13T14:07:30.327Z,55.80
2017-09-13T14:09:57.852Z,55.10
2017-09-13T14:12:25.390Z,55.50
2017-09-13T14:14:53.676Z,55.40
2017-09-13T14:17:21.205Z,55.40
2017-09-13T14:19:48.731Z,55.10
2017-09-13T14:22:16.237Z,55.50
2017-09-13T14:24:43.865Z,56.60
2017-09-13T14:27:11.507Z,55.90
2017-09-13T14:29:39.040Z,56.30
2017-09-13T14:32:06.564Z,56.50
2017-09-13T14:34:34.096Z,56.10
2017-09-13T14:37:01.612Z,56.90
2017-09-13T14:39:30.026Z,57.30
2017-09-13T14:41:57.557Z,57.20
2017-09-13T14:44:25.134Z,57.90
2017-09-13T14:46:52.778Z,58.10
2017-09-13T14:49:20.438Z,58.20
2017-09-13T14:51:47.967Z,58.20
2017-09-13T14:54:15.491Z,58.70
2017-09-13T14:56:42.998Z,58.60
2017-09-13T14:59:11.274Z,59.00
2017-09-13T15:01:38.786Z,58.90
2017-09-13T15:04:06.290Z,58.50
2017-09-13T15:06:33.909Z,58.10
2017-09-13T15:09:01.583Z,58.20
2017-09-13T15:11:29.118Z,57.90
2017-09-13T15:13:56.798Z,58.00
2017-09-13T15:16:24.382Z,58.00
2017-09-13T15:18:51.886Z,58.10
2017-09-13T15:21:19.470Z,58.20
2017-09-13T15:23:46.976Z,58.10
2017-09-13T15:26:15.408Z,59.10
2017-09-13T15:28:42.932Z,58.40
2017-09-13T15:31:11.349Z,59.30
2017-09-13T15:33:38.886Z,59.20
2017-09-13T15:36:06.536Z,59.50
2017-09-13T15:38:34.063Z,59.80
2017-09-13T15:41:01.600Z,60.00
2017-09-13T15:43:29.249Z,59.90
2017-09-13T15:45:56.815Z,59.90
2017-09-13T15:48:24.333Z,60.30
2017-09-13T15:50:52.624Z,60.20
2017-09-13T15:53:20.147Z,60.20
2017-09-13T15:55:47.711Z,60.30
2017-09-13T15:58:15.263Z,60.40
2017-09-13T16:00:42.799Z,60.40
2017-09-13T16:03:10.445Z,61.10
2017-09-13T16:05:38.091Z,62.10
2017-09-13T16:08:05.741Z,62.20
2017-09-13T16:10:33.324Z,62.30
2017-09-13T16:13:00.823Z,62.60
2017-09-13T16:15:28.386Z,62.70
2017-09-13T16:17:56.028Z,62.30
2017-09-13T16:20:23.776Z,63.30
2017-09-13T16:22:51.336Z,62.30
2017-09-13T16:25:18.858Z,62.50
2017-09-13T16:27:47.292Z,63.50
2017-09-13T16:30:14.840Z,63.40
2017-09-13T16:32:42.382Z,63.10
2017-09-13T16:35:10.024Z,62.40
2017-09-13T16:37:37.583Z,61.90
2017-09-13T16:40:05.092Z,61.30
2017-09-13T16:42:32.762Z,61.20
2017-09-13T16:45:00.433Z,60.80
2017-09-13T16:47:28.754Z,60.30
2017-09-13T16:49:56.279Z,60.30
2017-09-13T16:52:23.949Z,60.20
2017-09-13T16:54:51.630Z,59.90
2017-09-13T16:57:19.328Z,59.80
2017-09-13T16:59:46.872Z,59.80
2017-09-13T17:02:14.527Z,59.60
2017-09-13T17:04:42.202Z,59.60
2017-09-13T17:07:09.737Z,59.60
2017-09-13T17:09:37.394Z,59.80
2017-09-13T17:12:05.098Z,59.80
2017-09-13T17:14:32.774Z,59.70
2017-09-13T17:17:00.472Z,59.80
2017-09-13T17:19:28.150Z,60.00
2017-09-13T17:21:55.692Z,59.90
2017-09-13T17:24:23.249Z,59.90
2017-09-13T17:26:50.764Z,60.10
2017-09-13T17:29:18.290Z,60.10
2017-09-13T17:31:46.585Z,59.70
2017-09-13T17:34:15.052Z,59.60
2017-09-13T17:36:42.582Z,59.60
2017-09-13T17:39:10.096Z,59.40
2017-09-13T17:41:38.404Z,59.30
2017-09-13T17:44:05.942Z,59.20
2017-09-13T17:46:33.504Z,59.20
2017-09-13T17:49:01.031Z,59.10
2017-09-13T17:51:29.308Z,59.10
2017-09-13T17:53:56.868Z,59.10
2017-09-13T17:56:24.641Z,59.00
2017-09-13T17:58:52.190Z,58.80
2017-09-13T18:01:19.699Z,58.70
2017-09-13T18:03:47.230Z,58.70
2017-09-13T18:06:14.735Z,58.60
2017-09-13T18:08:42.422Z,58.60
2017-09-13T18:11:09.967Z,58.50
2017-09-13T18:13:38.267Z,58.70
2017-09-13T18:16:05.940Z,58.70
2017-09-13T18:18:33.491Z,58.70
2017-09-13T18:21:01.006Z,58.70
2017-09-13T18:23:28.558Z,58.50
2017-09-13T18:25:56.164Z,58.70
2017-09-13T18:28:23.744Z,58.70
2017-09-13T18:30:51.294Z,58.70
2017-09-13T18:33:18.809Z,58.60
2017-09-13T18:35:46.346Z,58.60
2017-09-13T18:38:15.882Z,59.10
2017-09-13T18:40:43.521Z,58.60
2017-09-13T18:43:11.346Z,58.60
2017-09-13T18:45:38.910Z,58.60
2017-09-13T18:48:06.591Z,58.60
2017-09-13T18:50:34.334Z,58.70
2017-09-13T18:53:01.889Z,58.70
2017-09-13T18:55:30.159Z,58.90
2017-09-13T18:57:58.446Z,58.80
2017-09-13T19:00:25.958Z,58.70
2017-09-13T19:02:53.520Z,58.80
2017-09-13T19:05:21.035Z,58.90
2017-09-13T19:07:48.732Z,58.70
2017-09-13T19:10:16.266Z,58.70
2017-09-13T19:12:44.735Z,58.60
2017-09-13T19:15:13.211Z,58.50
2017-09-13T19:17:40.803Z,58.50
2017-09-13T19:20:08.310Z,58.60
2017-09-13T19:22:35.879Z,58.50
2017-09-13T19:25:04.504Z,58.50
2017-09-13T19:27:32.060Z,58.40
2017-09-13T19:29:59.587Z,58.50
2017-09-13T19:32:27.262Z,58.50
2017-09-13T19:34:54.812Z,58.50
2017-09-13T19:37:22.311Z,58.40
2017-09-13T19:39:49.831Z,58.40
2017-09-13T19:42:17.342Z,58.40
2017-09-13T19:44:44.878Z,58.50
2017-09-13T19:47:12.394Z,58.30
2017-09-13T19:49:40.683Z,58.30
2017-09-13T19:52:08.982Z,58.20
2017-09-13T19:54:36.518Z,58.20
2017-09-13T19:57:04.803Z,58.20
2017-09-13T19:59:32.341Z,58.20
2017-09-13T20:01:59.865Z,57.90
2017-09-13T20:04:27.392Z,58.10
2017-09-13T20:06:54.907Z,58.00
2017-09-13T20:09:22.484Z,57.90
2017-09-13T20:11:49.987Z,58.00
2017-09-13T20:14:17.513Z,57.80
2017-09-13T20:16:45.031Z,57.90
2017-09-13T20:19:12.562Z,58.00
2017-09-13T20:21:40.124Z,57.90
2017-09-13T20:24:07.657Z,57.80
2017-09-13T20:26:35.166Z,57.80
2017-09-13T20:29:02.707Z,57.60
2017-09-13T20:31:30.218Z,57.60
2017-09-13T20:33:58.503Z,57.70
2017-09-13T20:36:26.779Z,57.50
2017-09-13T20:38:55.096Z,57.60
2017-09-13T20:41:22.619Z,57.60
2017-09-13T20:43:50.884Z,57.50
2017-09-13T20:46:19.195Z,57.20
2017-09-13T20:48:46.719Z,57.20
2017-09-13T20:51:15.043Z,56.90
2017-09-13T20:53:43.511Z,57.00
2017-09-13T20:56:11.038Z,57.00
2017-09-13T20:58:38.555Z,57.00
2017-09-13T21:01:06.091Z,57.00
2017-09-13T21:03:33.611Z,56.90
2017-09-13T21:06:01.139Z,57.00
2017-09-13T21:08:28.651Z,57.00
2017-09-13T21:10:56.954Z,56.80
2017-09-13T21:13:24.645Z,56.70
2017-09-13T21:15:52.175Z,56.60
2017-09-13T21:18:19.691Z,56.60
2017-09-13T21:20:47.224Z,56.50
2017-09-13T21:23:15.032Z,56.30
2017-09-13T21:25:42.578Z,56.30
2017-09-13T21:28:10.132Z,56.30
2017-09-13T21:30:37.664Z,56.20
2017-09-13T21:33:05.958Z,56.10
2017-09-13T21:35:34.318Z,56.10
2017-09-13T21:38:01.926Z,56.00
2017-09-13T21:40:31.647Z,56.00
2017-09-13T21:42:59.212Z,55.80
2017-09-13T21:45:30.207Z,55.90
2017-09-13T21:47:57.736Z,56.00
2017-09-13T21:50:25.287Z,56.10
2017-09-13T21:52:52.818Z,56.00
2017-09-13T21:55:20.395Z,55.90
2017-09-13T21:57:47.924Z,56.00
2017-09-13T22:00:15.475Z,55.90
2017-09-13T22:02:46.598Z,55.90
2017-09-13T22:05:14.916Z,55.80
2017-09-13T22:07:42.436Z,55.70
2017-09-13T22:10:10.808Z,55.70
2017-09-13T22:12:38.331Z,55.60
2017-09-13T22:15:05.859Z,55.30
2017-09-13T22:17:33.392Z,55.60
2017-09-13T22:20:00.928Z,55.70
2017-09-13T22:22:28.456Z,55.60
2017-09-13T22:24:55.991Z,55.50
2017-09-13T22:27:23.536Z,55.50
2017-09-13T22:29:51.846Z,55.60
2017-09-13T22:32:19.393Z,55.60
2017-09-13T22:34:46.960Z,55.60
2017-09-13T22:37:14.494Z,55.70
2017-09-13T22:39:42.065Z,55.70
2017-09-13T22:42:09.633Z,55.60
2017-09-13T22:44:37.160Z,55.60
2017-09-13T22:47:04.684Z,55.70
2017-09-13T22:49:32.229Z,55.80
2017-09-13T22:51:59.736Z,55.90
2017-09-13T22:54:27.271Z,56.00
2017-09-13T22:56:54.806Z,56.10
2017-09-13T22:59:22.353Z,56.20
2017-09-13T23:01:49.876Z,56.20
2017-09-13T23:04:17.425Z,56.40
2017-09-13T23:06:44.959Z,56.30
2017-09-13T23:09:12.485Z,56.30
2017-09-13T23:11:40.013Z,56.20
2017-09-13T23:14:07.552Z,56.30
2017-09-13T23:16:35.103Z,56.50
2017-09-13T23:19:02.627Z,56.40
2017-09-13T23:21:30.933Z,56.10
2017-09-13T23:23:58.456Z,56.00
2017-09-13T23:26:25.998Z,56.00
2017-09-13T23:28:53.524Z,55.70
2017-09-13T23:31:21.056Z,55.40
2017-09-13T23:33:48.564Z,55.50
2017-09-13T23:36:16.097Z,55.40
2017-09-13T23:38:43.630Z,55.60
2017-09-13T23:41:11.190Z,55.70
2017-09-13T23:43:38.702Z,55.80
2017-09-13T23:46:06.236Z,55.90
2017-09-13T23:48:33.799Z,55.80
2017-09-13T23:51:01.349Z,55.90
2017-09-13T23:53:29.686Z,56.00
2017-09-13T23:55:57.208Z,55.90
2017-09-13T23:58:24.717Z,55.80
